Terminal Aerodrome Forecast
Issued by NWS

Home | Current Version | Previous Version | Text Only | Print | Product List | Glossary On
Versions: 1 2 3 4 5 6 7 8 9 10 11 12 13 14 15 16 17 18 19
000
FTAK31 PAJN 291317 AAA
TAFAJN
TAF AMD
PAJN 291317Z 2913/3012 VRB03KT P6SM BCFG SCT002 SCT040
      TEMPO 2913/2916 00000KT 1/2SM FG BKN002
     FM291800 26007KT P6SM FEW040
     FM300300 VRB03KT P6SM SKC=

USA.gov is the U.S. government's official web portal to all federal, state and local government web resources and services.